Latest METARs, TAFs and NOTAMs for SKCG


---------------------------------------------------------------------------
	(OBSERVATIONS)
SKCG 220800Z 36004KT 9999 FEW018 24/24 A2987=
SKCG 220700Z 01005KT 9999 FEW018 24/24 A2989 METAR SKBQ 220700Z
    32004KT CAVOK 23/22 A2988=
SKCG 220600Z 02003KT 9999 SCT018 24/24 A2990 METAR SKBQ 220600Z
    32005KT CAVOK 24/22 A2990=
---------------------------------------------------------------------------
	(TERMINAL AREA FORECAST)
SKCG 220500Z 2206/2306 01006KT CAVOK
    TEMPO 2210/2213 9000 FEW015
    BECMG 2214/2216 34014KT
    TX31/2218Z TN23/2211Z=
---------------------------------------------------------------------------
	(NOTAMS)


SKCG A0196/17 RWY 01/19 PRESENCE OF UNDULATION FST 1200M RWY
    01, EXER CTN. 19 JAN 20:27 2017 UNTIL 26 JAN 23:59 2017 ESTIMATED.
    CREATED: 19 JAN 20:29 2017

SKCG A0198/17 RWY 01/19 CLSD. DLY BTN 0530-1100, 20 JAN 05:30
    2017 UNTIL 06 FEB 11:00 2017. CREATED: 19 JAN 22:11 2017

SKCG A2997/09 FIRE FIGHTING AND RESCUE DOWNGRADED TO CAT 7 09
    DEC 20:30 UNTIL 10 DEC 23:00 ESTIMATED

SKCG A3345/16 OMNIDIRECTIONAL SID RWY 19 SKCG: TKOF RWY 19, KEEP
    RWY HDG TO ALT 500FT THEN INTERCEPT AND CONTINUE VIA RDL
    005 TO VOR/CTG, CROSS FIX 7NM RDL 005 VOR/CTG TO 2000FT OR
    UPPER KEEP MIN PDG 5.5? TIL 2000FT THEN PREVIOUS VECTORIAL
    GUIDE AND ATC INSTRUCTIONS TO PROCEED ACCORDING TO PLN REF
    AIP SKCG. 18 SEP 13:45 2016 UNTIL PERM. CREATED: 18 SEP 14:00
    2016

SKCG A4548/16 AWS U/S. 05 DEC 13:37 2016 UNTIL 06 MAR 23:59 2017
    ESTIMATED. CREATED: 05 DEC 13:37 2016

---------------------------------------------------------------------------